首页
METAR-TAF:

METAR-TAF

机场 :

費耶特維爾, 北卡罗来纳州, 美国

纬度: 34-59-22N, 经度: 078-52-48W, 海拔: 57米

当前天气观测

该预报发布于19分钟前的01:53 UTC
风速7节,风向南转西南
温度 26°C
湿度 79%
气压 1015 hPa
能見度: 16.1公里
天空无云

METAR: KFAY 220153Z 20007KT 10SM CLR 26/22 A2997 RMK AO2 SLP143 T02610217

时间: 22:12 (02:12 UTC)

预报

该预报发布于2小时和52分钟前的23:20 UTC
预报有效从22日的 00点(UTC)到 22日的 24点(UTC)
风速8节,风向南转西南
能見度: 10公里
多云层高于4000英尺
从 22日的 0300点(UTC)
风速5节,风向南转西南
能見度: 10公里
多云层高于3500英尺, 积雨云.
附近有雷暴
从 22日的 0900点(UTC)
风速4节,风向多变
能見度: 10公里
少量云层高于500英尺
多云层高于1500英尺
从 22日的 1300点(UTC)
风速4节,风向多变
能見度: 10公里
少量云层高于2500英尺
多云层高于5000英尺
从 22日的 1800点(UTC)
风速7节,风向西
能見度: 10公里
多云层高于4500英尺, 积雨云.
附近有雷暴

TAF: KFAY 212320Z 2200/2224 21008KT P6SM BKN040 FM220300 21005KT P6SM VCTS BKN035CB FM220900 VRB04KT P6SM FEW005 BKN015 FM221300 VRB04KT P6SM FEW025 BKN050 FM221800 27007KT P6SM VCTS BKN045CB

超过4000个机场的气象观测和天气预报(METAR&TAF报告)。

可查询的气象台以黄色和红色小点在地图上表示。

将鼠标移到小点上方,可查看气象台名称。

然后点击查看天气观测和预报。

如需切换地图:点击带黑十字的绿色按钮放大地图;点击带横线的绿色按钮缩小地图;或者点击绿色箭头查看邻近地区的地图。


METAR-TAF: